createdAt,value
2017-05-17T00:00:16.130Z,1026.49
2017-05-17T00:01:37.638Z,1026.48
2017-05-17T00:02:59.918Z,1026.49
2017-05-17T00:04:22.115Z,1026.44
2017-05-17T00:05:43.319Z,1026.48
2017-05-17T00:07:05.511Z,1026.45
2017-05-17T00:08:28.001Z,1026.44
2017-05-17T00:09:50.790Z,1026.44
2017-05-17T00:11:12.755Z,1026.44
2017-05-17T00:12:34.589Z,1026.46
2017-05-17T00:13:56.421Z,1026.45
2017-05-17T00:15:17.702Z,1026.42
2017-05-17T00:16:39.537Z,1026.38
2017-05-17T00:18:01.768Z,1026.37
2017-05-17T00:19:23.927Z,1026.35
2017-05-17T00:20:46.392Z,1026.3
2017-05-17T00:22:08.225Z,1026.33
2017-05-17T00:23:30.377Z,1026.3
2017-05-17T00:24:52.208Z,1026.26
2017-05-17T00:26:15.043Z,1026.24
2017-05-17T00:27:36.866Z,1026.18
2017-05-17T00:28:58.389Z,1026.13
2017-05-17T00:30:20.540Z,1026.12
2017-05-17T00:31:42.679Z,1026.11
2017-05-17T00:33:04.838Z,1026.1
2017-05-17T00:34:26.719Z,1026.05
2017-05-17T00:35:48.238Z,1026.1
2017-05-17T00:37:10.051Z,1026.04
2017-05-17T00:38:32.298Z,1026.04
2017-05-17T00:39:54.463Z,1026.04
2017-05-17T00:41:16.619Z,1026.04
2017-05-17T00:42:39.249Z,1026.03
2017-05-17T00:44:00.388Z,1026.04
2017-05-17T00:45:22.989Z,1026.04
2017-05-17T00:46:45.229Z,1026.04
2017-05-17T00:48:07.849Z,1026.05
2017-05-17T00:49:29.998Z,1025.99
2017-05-17T00:50:51.314Z,1026
2017-05-17T00:52:13.468Z,1025.99
2017-05-17T00:53:35.274Z,1025.96
2017-05-17T00:54:57.421Z,1025.95
2017-05-17T00:56:19.268Z,1025.91
2017-05-17T00:57:41.153Z,1025.93
2017-05-17T00:59:03.619Z,1025.94
2017-05-17T01:00:25.182Z,1025.95
2017-05-17T01:01:47.398Z,1025.91
2017-05-17T01:03:09.239Z,1025.9
2017-05-17T01:04:31.451Z,1025.9
2017-05-17T01:05:53.005Z,1025.88
2017-05-17T01:07:14.838Z,1025.89
2017-05-17T01:08:36.999Z,1025.86
2017-05-17T01:09:59.249Z,1025.86
2017-05-17T01:11:21.193Z,1025.85
2017-05-17T01:12:42.708Z,1025.83
2017-05-17T01:14:04.244Z,1025.77
2017-05-17T01:15:26.343Z,1025.79
2017-05-17T01:16:48.496Z,1025.76
2017-05-17T01:18:09.704Z,1025.81
2017-05-17T01:19:31.859Z,1025.81
2017-05-17T01:20:54.353Z,1025.75
2017-05-17T01:22:15.890Z,1025.78
2017-05-17T01:23:37.519Z,1025.74
2017-05-17T01:24:59.357Z,1025.79
2017-05-17T01:26:21.912Z,1025.7
2017-05-17T01:27:44.371Z,1025.75
2017-05-17T01:29:06.210Z,1025.71
2017-05-17T01:30:28.089Z,1025.74
2017-05-17T01:31:50.918Z,1025.7
2017-05-17T01:33:13.095Z,1025.74
2017-05-17T01:34:34.951Z,1025.7
2017-05-17T01:35:57.109Z,1025.69
2017-05-17T01:37:19.603Z,1025.71
2017-05-17T01:38:41.431Z,1025.67
2017-05-17T01:40:02.962Z,1025.64
2017-05-17T01:41:25.137Z,1025.65
2017-05-17T01:42:47.397Z,1025.66
2017-05-17T01:44:09.524Z,1025.67
2017-05-17T01:45:31.669Z,1025.67
2017-05-17T01:46:53.189Z,1025.68
2017-05-17T01:48:15.432Z,1025.67
2017-05-17T01:49:37.683Z,1025.64
2017-05-17T01:51:00.159Z,1025.65
2017-05-17T01:52:21.672Z,1025.62
2017-05-17T01:53:43.575Z,1025.61
2017-05-17T01:55:05.098Z,1025.61
2017-05-17T01:56:26.953Z,1025.64
2017-05-17T01:57:48.469Z,1025.57
2017-05-17T01:59:10.103Z,1025.58
2017-05-17T02:00:32.593Z,1025.56
2017-05-17T02:01:54.417Z,1025.59
2017-05-17T02:03:16.679Z,1025.6
2017-05-17T02:04:39.213Z,1025.6
2017-05-17T02:06:00.308Z,1025.57
2017-05-17T02:07:21.503Z,1025.6
2017-05-17T02:08:43.709Z,1025.58
2017-05-17T02:10:06.201Z,1025.57
2017-05-17T02:11:28.054Z,1025.54
2017-05-17T02:12:49.262Z,1025.54
2017-05-17T02:14:11.085Z,1025.54
2017-05-17T02:15:33.657Z,1025.51
2017-05-17T02:16:55.549Z,1025.54
2017-05-17T02:18:17.059Z,1025.5
2017-05-17T02:19:38.593Z,1025.51
2017-05-17T02:21:00.734Z,1025.5
2017-05-17T02:22:22.260Z,1025.5
2017-05-17T02:23:44.449Z,1025.48
2017-05-17T02:25:06.078Z,1025.48
2017-05-17T02:26:27.867Z,1025.45
2017-05-17T02:27:50.024Z,1025.43
2017-05-17T02:29:11.905Z,1025.4
2017-05-17T02:30:34.070Z,1025.37
2017-05-17T02:31:55.659Z,1025.38
2017-05-17T02:33:17.807Z,1025.41
2017-05-17T02:34:39.694Z,1025.38
2017-05-17T02:36:00.966Z,1025.34
2017-05-17T02:37:23.444Z,1025.37
2017-05-17T02:38:45.330Z,1025.35
2017-05-17T02:40:06.918Z,1025.33
2017-05-17T02:41:29.160Z,1025.33
2017-05-17T02:42:51.920Z,1025.33
2017-05-17T02:44:13.772Z,1025.32
2017-05-17T02:45:35.684Z,1025.26
2017-05-17T02:46:57.250Z,1025.24
2017-05-17T02:48:19.383Z,1025.25
2017-05-17T02:49:41.523Z,1025.21
2017-05-17T02:51:03.752Z,1025.22
2017-05-17T02:52:26.198Z,1025.2
2017-05-17T02:53:48.167Z,1025.21
2017-05-17T02:55:10.320Z,1025.16
2017-05-17T02:56:32.160Z,1025.18
2017-05-17T02:57:53.364Z,1025.13
2017-05-17T02:59:16.136Z,1025.13
2017-05-17T03:00:38.109Z,1025.1
2017-05-17T03:02:00.258Z,1025.12
2017-05-17T03:03:22.403Z,1025.09
2017-05-17T03:04:44.865Z,1025.1
2017-05-17T03:06:06.699Z,1025.07
2017-05-17T03:07:28.319Z,1025.05
2017-05-17T03:08:50.146Z,1025.04
2017-05-17T03:10:12.012Z,1025.05
2017-05-17T03:11:34.151Z,1025.05
2017-05-17T03:12:55.723Z,1025.02
2017-05-17T03:14:16.940Z,1025.03
2017-05-17T03:15:39.080Z,1025.03
2017-05-17T03:17:01.559Z,1025.06
2017-05-17T03:18:24.147Z,1025
2017-05-17T03:19:46.349Z,1025.01
2017-05-17T03:21:07.988Z,1025
2017-05-17T03:22:29.938Z,1024.96
2017-05-17T03:23:51.463Z,1024.95
2017-05-17T03:25:13.431Z,1024.99
2017-05-17T03:26:35.640Z,1024.97
2017-05-17T03:27:57.514Z,1024.95
2017-05-17T03:29:19.659Z,1024.97
2017-05-17T03:30:41.799Z,1024.96
2017-05-17T03:32:04.148Z,1024.93
2017-05-17T03:33:25.658Z,1024.97
2017-05-17T03:34:47.241Z,1024.98
2017-05-17T03:36:09.203Z,1024.95
2017-05-17T03:37:31.083Z,1024.95
2017-05-17T03:38:52.287Z,1024.98
2017-05-17T03:40:14.454Z,1024.99
2017-05-17T03:41:36.357Z,1025.01
2017-05-17T03:42:59.727Z,1024.96
2017-05-17T03:44:21.544Z,1024.98
2017-05-17T03:45:43.489Z,1024.98
2017-05-17T03:47:05.623Z,1024.95
2017-05-17T03:48:27.892Z,1024.98
2017-05-17T03:49:49.408Z,1025
2017-05-17T03:51:10.651Z,1024.98
2017-05-17T03:52:32.797Z,1024.96
2017-05-17T03:53:54.956Z,1024.96
2017-05-17T03:55:16.577Z,1025.01
2017-05-17T03:56:39.029Z,1024.92
2017-05-17T03:58:00.540Z,1024.97
2017-05-17T03:59:23.076Z,1024.94
2017-05-17T04:00:45.233Z,1024.96
2017-05-17T04:02:06.797Z,1024.94
2017-05-17T04:03:28.967Z,1024.96
2017-05-17T04:04:51.929Z,1024.94
2017-05-17T04:06:13.458Z,1024.96
2017-05-17T04:07:34.658Z,1025.02
2017-05-17T04:08:56.493Z,1025.02
2017-05-17T04:10:18.948Z,1025.03
2017-05-17T04:11:40.781Z,1025.03
2017-05-17T04:13:02.927Z,1025.02
2017-05-17T04:14:24.460Z,1025
2017-05-17T04:15:46.685Z,1025
2017-05-17T04:17:08.208Z,1025.02
2017-05-17T04:18:30.729Z,1025.06
2017-05-17T04:19:52.617Z,1025.06
2017-05-17T04:21:14.839Z,1025.09
2017-05-17T04:22:37.031Z,1025.14
2017-05-17T04:23:58.288Z,1025.09
2017-05-17T04:25:20.454Z,1025.09
2017-05-17T04:26:42.949Z,1025.09
2017-05-17T04:28:05.130Z,1025.05
2017-05-17T04:29:26.985Z,1025.09
2017-05-17T04:30:48.972Z,1025.06
2017-05-17T04:32:11.417Z,1025.08
2017-05-17T04:33:33.317Z,1025.09
2017-05-17T04:34:54.839Z,1025.05
2017-05-17T04:36:16.982Z,1025.11
2017-05-17T04:37:39.437Z,1025.08
2017-05-17T04:39:00.953Z,1025.12
2017-05-17T04:40:23.405Z,1025.07
2017-05-17T04:41:45.423Z,1025.1
2017-05-17T04:43:07.349Z,1025.11
2017-05-17T04:44:29.509Z,1025.04
2017-05-17T04:45:51.984Z,1025.06
2017-05-17T04:47:13.178Z,1025.07
2017-05-17T04:48:35.600Z,1025.04
2017-05-17T04:49:57.441Z,1025.05
2017-05-17T04:51:19.008Z,1025.02
2017-05-17T04:52:40.536Z,1025
2017-05-17T04:54:02.988Z,1024.98
2017-05-17T04:55:25.155Z,1024.98
2017-05-17T04:56:46.997Z,1024.98
2017-05-17T04:58:07.909Z,1024.98
2017-05-17T04:59:30.086Z,1024.97
2017-05-17T05:00:51.729Z,1024.98
2017-05-17T05:02:13.241Z,1024.97
2017-05-17T05:03:35.214Z,1024.99
2017-05-17T05:04:57.588Z,1024.95
2017-05-17T05:06:19.420Z,1024.95
2017-05-17T05:07:41.613Z,1024.96
2017-05-17T05:09:03.772Z,1025
2017-05-17T05:10:25.634Z,1025.02
2017-05-17T05:11:47.479Z,1025.04
2017-05-17T05:13:09.306Z,1025.05
2017-05-17T05:14:31.832Z,1025.04
2017-05-17T05:15:54.052Z,1025.02
2017-05-17T05:17:16.213Z,1025.02
2017-05-17T05:18:38.393Z,1025.06
2017-05-17T05:20:00.937Z,1025.06
2017-05-17T05:21:23.624Z,1025.04
2017-05-17T05:22:45.450Z,1025
2017-05-17T05:24:07.660Z,1025.01
2017-05-17T05:25:30.159Z,1025.04
2017-05-17T05:26:51.969Z,1025.07
2017-05-17T05:28:13.863Z,1025.05
2017-05-17T05:29:35.839Z,1025.02
2017-05-17T05:30:58.006Z,1025.02
2017-05-17T05:32:20.257Z,1025.03
2017-05-17T05:33:42.412Z,1024.98
2017-05-17T05:35:03.740Z,1024.98
2017-05-17T05:36:25.601Z,1025.01
2017-05-17T05:37:47.853Z,1024.95
2017-05-17T05:39:09.713Z,1024.95
2017-05-17T05:40:31.549Z,1024.9
2017-05-17T05:41:54.029Z,1024.9
2017-05-17T05:43:16.809Z,1024.92
2017-05-17T05:44:38.975Z,1024.91
2017-05-17T05:46:00.514Z,1024.93
2017-05-17T05:47:22.364Z,1024.92
2017-05-17T05:48:44.913Z,1024.92
2017-05-17T05:50:06.745Z,1024.91
2017-05-17T05:51:28.572Z,1024.92
2017-05-17T05:52:51.069Z,1024.93
2017-05-17T05:54:13.547Z,1024.95
2017-05-17T05:55:35.451Z,1024.96
2017-05-17T05:56:57.626Z,1024.91
2017-05-17T05:58:19.837Z,1024.97
2017-05-17T05:59:42.438Z,1024.92
2017-05-17T06:01:04.914Z,1024.96
2017-05-17T06:02:26.781Z,1024.92
2017-05-17T06:03:48.326Z,1024.92
2017-05-17T06:05:10.793Z,1024.91
2017-05-17T06:06:32.624Z,1024.89
2017-05-17T06:07:54.214Z,1024.92
2017-05-17T06:09:15.483Z,1024.88
2017-05-17T06:10:38.020Z,1024.9
2017-05-17T06:11:59.558Z,1024.87
2017-05-17T06:13:20.823Z,1024.83
2017-05-17T06:14:42.075Z,1024.82
2017-05-17T06:16:04.852Z,1024.81
2017-05-17T06:17:27.423Z,1024.74
2017-05-17T06:18:49.607Z,1024.83
2017-05-17T06:20:11.137Z,1024.78
2017-05-17T06:21:34.234Z,1024.81
2017-05-17T06:22:56.698Z,1024.84
2017-05-17T06:24:18.654Z,1024.8
2017-05-17T06:25:40.819Z,1024.85
2017-05-17T06:27:02.710Z,1024.88
2017-05-17T06:28:24.559Z,1024.84
2017-05-17T06:29:46.416Z,1024.86
2017-05-17T06:31:08.899Z,1024.85
2017-05-17T06:32:31.405Z,1024.86
2017-05-17T06:33:53.246Z,1024.89
2017-05-17T06:35:15.413Z,1024.84
2017-05-17T06:36:37.015Z,1024.82
2017-05-17T06:37:58.909Z,1024.84
2017-05-17T06:39:20.813Z,1024.81
2017-05-17T06:40:42.728Z,1024.76
2017-05-17T06:42:04.256Z,1024.85
2017-05-17T06:43:26.359Z,1024.86
2017-05-17T06:44:48.551Z,1024.96
2017-05-17T06:46:10.100Z,1024.84
2017-05-17T06:47:32.425Z,1024.86
2017-05-17T06:48:54.578Z,1024.95
2017-05-17T06:50:16.748Z,1024.97
2017-05-17T06:51:38.908Z,1024.95
2017-05-17T06:53:01.074Z,1024.96
2017-05-17T06:54:23.246Z,1024.98
2017-05-17T06:55:45.739Z,1024.95
2017-05-17T06:57:07.784Z,1024.94
2017-05-17T06:58:29.718Z,1024.99
2017-05-17T06:59:52.509Z,1024.9
2017-05-17T07:01:14.666Z,1024.85
2017-05-17T07:02:36.306Z,1024.88
2017-05-17T07:03:58.139Z,1024.88
2017-05-17T07:05:20.932Z,1024.88
2017-05-17T07:06:42.468Z,1024.88
2017-05-17T07:08:04.687Z,1024.94
2017-05-17T07:09:26.198Z,1024.77
2017-05-17T07:10:48.388Z,1024.79
2017-05-17T07:12:10.238Z,1024.76
2017-05-17T07:13:32.437Z,1024.72
2017-05-17T07:14:54.618Z,1024.74
2017-05-17T07:16:16.838Z,1024.8
2017-05-17T07:17:38.380Z,1024.77
2017-05-17T07:19:00.269Z,1024.84
2017-05-17T07:20:22.166Z,1024.89
2017-05-17T07:21:44.898Z,1025
2017-05-17T07:23:07.396Z,1024.91
2017-05-17T07:24:28.918Z,1024.95
2017-05-17T07:25:51.102Z,1025.1
2017-05-17T07:27:13.208Z,1024.89
2017-05-17T07:28:35.077Z,1024.99
2017-05-17T07:29:56.618Z,1024.93
2017-05-17T07:31:18.770Z,1024.88
2017-05-17T07:32:41.327Z,1024.89
2017-05-17T07:34:03.797Z,1024.87
2017-05-17T07:35:25.009Z,1024.83
2017-05-17T07:36:46.856Z,1024.83
2017-05-17T07:38:09.426Z,1024.75
2017-05-17T07:39:31.949Z,1024.78
2017-05-17T07:40:53.803Z,1024.79
2017-05-17T07:42:16.018Z,1024.72
2017-05-17T07:43:38.493Z,1024.73
2017-05-17T07:45:00.963Z,1024.73
2017-05-17T07:46:22.797Z,1024.82
2017-05-17T07:47:44.682Z,1024.67
2017-05-17T07:49:06.794Z,1024.7
2017-05-17T07:50:29.033Z,1024.63
2017-05-17T07:51:51.213Z,1024.6
2017-05-17T07:53:13.502Z,1024.65
2017-05-17T07:54:35.037Z,1024.61
2017-05-17T07:55:57.207Z,1024.61
2017-05-17T07:57:19.268Z,1024.56
2017-05-17T07:58:41.451Z,1024.61
2017-05-17T08:00:04.302Z,1024.67
2017-05-17T08:01:25.833Z,1024.63
2017-05-17T08:02:48.083Z,1024.61
2017-05-17T08:04:09.999Z,1024.6
2017-05-17T08:05:32.777Z,1024.53
2017-05-17T08:06:54.335Z,1024.53
2017-05-17T08:08:16.878Z,1024.46
2017-05-17T08:09:39.367Z,1024.43
2017-05-17T08:11:02.086Z,1024.35
2017-05-17T08:12:24.247Z,1024.36
2017-05-17T08:13:46.110Z,1024.33
2017-05-17T08:15:08.290Z,1024.33
2017-05-17T08:16:30.463Z,1024.34
2017-05-17T08:17:52.358Z,1024.3
2017-05-17T08:19:14.206Z,1024.29
2017-05-17T08:20:36.484Z,1024.29
2017-05-17T08:21:58.437Z,1024.25
2017-05-17T08:23:21.048Z,1024.24
2017-05-17T08:24:42.918Z,1024.18
2017-05-17T08:26:05.397Z,1024.17
2017-05-17T08:27:26.920Z,1024.16
2017-05-17T08:28:49.086Z,1024.17
2017-05-17T08:30:11.268Z,1024.12
2017-05-17T08:31:33.751Z,1024.09
2017-05-17T08:32:55.888Z,1024.16
2017-05-17T08:34:17.797Z,1024.12
2017-05-17T08:35:39.728Z,1024.08
2017-05-17T08:37:01.657Z,1024.08
2017-05-17T08:38:24.437Z,1024.05
2017-05-17T08:39:46.053Z,1024.05
2017-05-17T08:41:07.589Z,1023.99
2017-05-17T08:42:30.079Z,1024
2017-05-17T08:43:52.243Z,1023.98
2017-05-17T08:45:14.101Z,1023.99
2017-05-17T08:46:35.782Z,1023.94
2017-05-17T08:47:58.047Z,1023.93
2017-05-17T08:49:20.617Z,1023.96
2017-05-17T08:50:42.557Z,1023.96
2017-05-17T08:52:04.405Z,1023.96
2017-05-17T08:53:26.357Z,1023.96
2017-05-17T08:54:48.838Z,1023.98
2017-05-17T08:56:10.793Z,1024
2017-05-17T08:57:32.318Z,1024
2017-05-17T08:58:54.177Z,1024
2017-05-17T09:00:16.361Z,1023.99
2017-05-17T09:01:37.898Z,1023.98
2017-05-17T09:03:00.247Z,1023.91
2017-05-17T09:04:22.530Z,1023.93
2017-05-17T09:05:44.725Z,1023.96
2017-05-17T09:07:06.899Z,1023.97
2017-05-17T09:08:29.070Z,1023.93
2017-05-17T09:09:51.237Z,1023.91
2017-05-17T09:11:13.386Z,1023.89
2017-05-17T09:12:35.582Z,1023.83
2017-05-17T09:13:57.770Z,1023.81
2017-05-17T09:15:19.928Z,1023.81
2017-05-17T09:16:42.705Z,1023.79
2017-05-17T09:18:04.878Z,1023.78
2017-05-17T09:19:26.392Z,1023.78
2017-05-17T09:20:48.887Z,1023.76
2017-05-17T09:22:11.416Z,1023.72
2017-05-17T09:23:33.268Z,1023.72
2017-05-17T09:24:55.263Z,1023.73
2017-05-17T09:26:17.126Z,1023.69
2017-05-17T09:27:39.317Z,1023.67
2017-05-17T09:29:01.355Z,1023.67
2017-05-17T09:30:23.576Z,1023.64
2017-05-17T09:31:45.476Z,1023.6
2017-05-17T09:33:06.983Z,1023.61
2017-05-17T09:34:28.230Z,1023.56
2017-05-17T09:35:50.147Z,1023.55
2017-05-17T09:37:11.998Z,1023.53
2017-05-17T09:38:34.447Z,1023.5
2017-05-17T09:39:56.701Z,1023.47
2017-05-17T09:41:18.539Z,1023.49
2017-05-17T09:42:40.742Z,1023.48
2017-05-17T09:44:02.577Z,1023.48
2017-05-17T09:45:24.447Z,1023.43
2017-05-17T09:46:46.702Z,1023.41
2017-05-17T09:48:08.236Z,1023.33
2017-05-17T09:49:30.407Z,1023.32
2017-05-17T09:50:52.257Z,1023.37
2017-05-17T09:52:14.228Z,1023.36
2017-05-17T09:53:36.726Z,1023.29
2017-05-17T09:54:58.567Z,1023.28
2017-05-17T09:56:20.726Z,1023.28
2017-05-17T09:57:42.950Z,1023.24
2017-05-17T09:59:04.917Z,1023.22
2017-05-17T10:00:27.117Z,1023.18
2017-05-17T10:01:49.276Z,1023.21
2017-05-17T10:03:11.784Z,1023.2
2017-05-17T10:04:33.724Z,1023.18
2017-05-17T10:05:56.495Z,1023.13
2017-05-17T10:07:18.666Z,1023.11
2017-05-17T10:08:39.888Z,1023.06
2017-05-17T10:10:02.037Z,1023.04
2017-05-17T10:11:24.863Z,1023.02
2017-05-17T10:12:47.016Z,1022.97
2017-05-17T10:14:08.677Z,1023
2017-05-17T10:15:30.596Z,1022.93
2017-05-17T10:16:52.818Z,1022.91
2017-05-17T10:18:15.078Z,1022.91
2017-05-17T10:19:36.934Z,1022.84
2017-05-17T10:20:59.416Z,1022.9
2017-05-17T10:22:21.929Z,1022.84
2017-05-17T10:23:44.413Z,1022.82
2017-05-17T10:25:05.939Z,1022.81
2017-05-17T10:26:28.107Z,1022.77
2017-05-17T10:27:51.005Z,1022.77
2017-05-17T10:29:12.836Z,1022.73
2017-05-17T10:30:34.366Z,1022.71
2017-05-17T10:31:56.582Z,1022.7
2017-05-17T10:33:19.067Z,1022.68
2017-05-17T10:34:40.909Z,1022.66
2017-05-17T10:36:03.386Z,1022.68
2017-05-17T10:37:25.543Z,1022.69
2017-05-17T10:38:47.309Z,1022.68
2017-05-17T10:40:09.166Z,1022.7
2017-05-17T10:41:30.705Z,1022.69
2017-05-17T10:42:52.917Z,1022.68
2017-05-17T10:44:15.356Z,1022.71
2017-05-17T10:45:37.673Z,1022.66
2017-05-17T10:46:59.842Z,1022.7
2017-05-17T10:48:21.779Z,1022.61
2017-05-17T10:49:44.946Z,1022.64
2017-05-17T10:51:06.816Z,1022.58
2017-05-17T10:52:28.667Z,1022.48
2017-05-17T10:53:50.636Z,1022.45
2017-05-17T10:55:12.805Z,1022.38
2017-05-17T10:56:34.646Z,1022.34
2017-05-17T10:57:56.518Z,1022.33
2017-05-17T10:59:18.677Z,1022.27
2017-05-17T11:00:40.823Z,1022.26
2017-05-17T11:02:02.728Z,1022.2
2017-05-17T11:03:24.889Z,1022.17
2017-05-17T11:04:46.846Z,1022.12
2017-05-17T11:06:09.261Z,1022.18
2017-05-17T11:07:31.419Z,1022.11
2017-05-17T11:08:53.606Z,1022.11
2017-05-17T11:10:15.527Z,1022.06
2017-05-17T11:11:38.070Z,1022.07
2017-05-17T11:13:00.607Z,1022.05
2017-05-17T11:14:22.568Z,1022.04
2017-05-17T11:15:44.753Z,1022.02
2017-05-17T11:17:07.215Z,1022
2017-05-17T11:18:29.886Z,1021.98
2017-05-17T11:19:52.076Z,1022
2017-05-17T11:21:14.298Z,1021.99
2017-05-17T11:22:36.864Z,1021.98
2017-05-17T11:23:58.706Z,1021.96
2017-05-17T11:25:20.559Z,1021.9
2017-05-17T11:26:42.505Z,1021.93
2017-05-17T11:28:05.027Z,1021.93
2017-05-17T11:29:27.316Z,1021.91
2017-05-17T11:30:48.984Z,1021.87
2017-05-17T11:32:11.159Z,1021.85
2017-05-17T11:33:33.958Z,1021.8
2017-05-17T11:34:56.129Z,1021.77
2017-05-17T11:36:17.988Z,1021.75
2017-05-17T11:37:40.176Z,1021.76
2017-05-17T11:39:02.939Z,1021.74
2017-05-17T11:40:25.115Z,1021.75
2017-05-17T11:41:46.647Z,1021.67
2017-05-17T11:43:08.496Z,1021.67
2017-05-17T11:44:31.009Z,1021.68
2017-05-17T11:45:53.207Z,1021.61
2017-05-17T11:47:15.052Z,1021.55
2017-05-17T11:48:37.217Z,1021.51
2017-05-17T11:49:59.007Z,1021.56
2017-05-17T11:51:20.870Z,1021.57
2017-05-17T11:52:42.428Z,1021.52
2017-05-17T11:54:04.658Z,1021.46
2017-05-17T11:55:27.080Z,1021.47
2017-05-17T11:56:49.597Z,1021.42
2017-05-17T11:58:12.092Z,1021.42
2017-05-17T11:59:34.366Z,1021.44
2017-05-17T12:00:56.869Z,1021.4
2017-05-17T12:02:18.715Z,1021.38
2017-05-17T12:03:41.032Z,1021.35
2017-05-17T12:05:02.945Z,1021.4
2017-05-17T12:06:24.787Z,1021.31
2017-05-17T12:07:46.617Z,1021.34
2017-05-17T12:09:08.499Z,1021.27
2017-05-17T12:10:30.987Z,1021.24
2017-05-17T12:11:53.096Z,1021.23
2017-05-17T12:13:15.043Z,1021.21
2017-05-17T12:14:37.195Z,1021.2
2017-05-17T12:15:59.066Z,1021.1
2017-05-17T12:17:21.199Z,1021.12
2017-05-17T12:18:43.357Z,1021.14
2017-05-17T12:20:05.209Z,1021.17
2017-05-17T12:21:27.374Z,1021.09
2017-05-17T12:22:49.568Z,1021.04
2017-05-17T12:24:11.429Z,1021.06
2017-05-17T12:25:33.404Z,1021.03
2017-05-17T12:26:55.269Z,1021.05
2017-05-17T12:28:17.736Z,1021.03
2017-05-17T12:29:39.919Z,1021.06
2017-05-17T12:31:01.867Z,1021.02
2017-05-17T12:32:24.372Z,1021.02
2017-05-17T12:33:46.553Z,1020.96
2017-05-17T12:35:08.406Z,1020.93
2017-05-17T12:36:30.738Z,1020.9
2017-05-17T12:37:52.747Z,1020.88
2017-05-17T12:39:15.177Z,1020.8
2017-05-17T12:40:37.027Z,1020.86
2017-05-17T12:41:58.928Z,1020.85
2017-05-17T12:43:20.823Z,1020.82
2017-05-17T12:44:42.989Z,1020.85
2017-05-17T12:46:05.240Z,1020.8
2017-05-17T12:47:27.778Z,1020.77
2017-05-17T12:48:49.669Z,1020.78
2017-05-17T12:50:11.860Z,1020.74
2017-05-17T12:51:33.410Z,1020.75
2017-05-17T12:52:55.276Z,1020.71
2017-05-17T12:54:17.483Z,1020.73
2017-05-17T12:55:39.277Z,1020.62
2017-05-17T12:57:01.761Z,1020.63
2017-05-17T12:58:24.077Z,1020.6
2017-05-17T12:59:45.608Z,1020.58
2017-05-17T13:01:07.736Z,1020.59
2017-05-17T13:02:29.929Z,1020.58
2017-05-17T13:03:51.796Z,1020.51
2017-05-17T13:05:13.956Z,1020.46
2017-05-17T13:06:36.764Z,1020.41
2017-05-17T13:07:58.924Z,1020.37
2017-05-17T13:09:21.111Z,1020.4
2017-05-17T13:10:43.598Z,1020.35
2017-05-17T13:12:06.120Z,1020.32
2017-05-17T13:13:28.274Z,1020.29
2017-05-17T13:14:50.120Z,1020.26
2017-05-17T13:16:12.610Z,1020.29
2017-05-17T13:17:35.446Z,1020.29
2017-05-17T13:18:56.976Z,1020.25
2017-05-17T13:20:18.827Z,1020.17
2017-05-17T13:21:41.382Z,1020.23
2017-05-17T13:23:04.150Z,1020.2
2017-05-17T13:24:26.361Z,1020.19
2017-05-17T13:25:47.938Z,1020.21
2017-05-17T13:27:09.809Z,1020.19
2017-05-17T13:28:32.319Z,1020.2
2017-05-17T13:29:54.519Z,1020.17
2017-05-17T13:31:16.379Z,1020.13
2017-05-17T13:32:38.559Z,1020.12
2017-05-17T13:34:00.742Z,1020.07
2017-05-17T13:35:22.649Z,1020.01
2017-05-17T13:36:44.858Z,1019.97
2017-05-17T13:38:06.521Z,1019.91
2017-05-17T13:39:28.967Z,1019.97
2017-05-17T13:40:50.817Z,1019.89
2017-05-17T13:42:12.700Z,1019.92
2017-05-17T13:43:35.184Z,1019.84
2017-05-17T13:44:57.695Z,1019.8
2017-05-17T13:46:20.199Z,1019.77
2017-05-17T13:47:42.675Z,1019.71
2017-05-17T13:49:04.597Z,1019.73
2017-05-17T13:50:27.169Z,1019.7
2017-05-17T13:51:49.657Z,1019.71
2017-05-17T13:53:11.660Z,1019.67
2017-05-17T13:54:33.887Z,1019.57
2017-05-17T13:55:56.049Z,1019.54
2017-05-17T13:57:18.506Z,1019.57
2017-05-17T13:58:40.687Z,1019.57
2017-05-17T14:00:02.215Z,1019.56
2017-05-17T14:01:24.648Z,1019.51
2017-05-17T14:02:47.147Z,1019.47
2017-05-17T14:04:09.317Z,1019.4
2017-05-17T14:05:31.487Z,1019.43
2017-05-17T14:06:54.089Z,1019.32
2017-05-17T14:08:15.957Z,1019.34
2017-05-17T14:09:37.887Z,1019.27
2017-05-17T14:11:00.085Z,1019.33
2017-05-17T14:12:22.218Z,1019.26
2017-05-17T14:13:44.697Z,1019.21
2017-05-17T14:15:06.056Z,1019.19
2017-05-17T14:16:27.987Z,1019.29
2017-05-17T14:17:50.505Z,1019.17
2017-05-17T14:19:12.137Z,1019.2
2017-05-17T14:20:34.009Z,1019.2
2017-05-17T14:21:56.195Z,1019.14
2017-05-17T14:23:18.707Z,1019.07
2017-05-17T14:24:40.939Z,1019.1
2017-05-17T14:26:03.098Z,1019
2017-05-17T14:27:24.927Z,1019.07
2017-05-17T14:28:47.397Z,1019.03
2017-05-17T14:30:09.688Z,1019.03
2017-05-17T14:31:32.180Z,1019.01
2017-05-17T14:32:54.478Z,1019.04
2017-05-17T14:34:17.059Z,1018.99
2017-05-17T14:35:39.247Z,1018.99
2017-05-17T14:37:01.418Z,1018.96
2017-05-17T14:38:23.605Z,1018.95
2017-05-17T14:39:46.079Z,1018.92
2017-05-17T14:41:08.566Z,1018.95
2017-05-17T14:42:30.529Z,1018.91
2017-05-17T14:43:52.482Z,1018.91
2017-05-17T14:45:14.726Z,1018.87
2017-05-17T14:46:36.595Z,1018.79
2017-05-17T14:47:58.787Z,1018.79
2017-05-17T14:49:20.638Z,1018.76
2017-05-17T14:50:43.490Z,1018.75
2017-05-17T14:52:05.979Z,1018.74
2017-05-17T14:53:27.817Z,1018.68
2017-05-17T14:54:49.453Z,1018.67
2017-05-17T14:56:11.390Z,1018.69
2017-05-17T14:57:33.254Z,1018.64
2017-05-17T14:58:55.437Z,1018.62
2017-05-17T15:00:17.027Z,1018.51
2017-05-17T15:01:39.548Z,1018.56
2017-05-17T15:03:01.128Z,1018.53
2017-05-17T15:04:23.609Z,1018.44
2017-05-17T15:05:46.114Z,1018.43
2017-05-17T15:07:08.367Z,1018.4
2017-05-17T15:08:30.538Z,1018.44
2017-05-17T15:09:52.741Z,1018.42
2017-05-17T15:11:15.224Z,1018.43
2017-05-17T15:12:37.366Z,1018.38
2017-05-17T15:13:59.267Z,1018.34
2017-05-17T15:15:21.645Z,1018.34
2017-05-17T15:16:44.135Z,1018.32
2017-05-17T15:18:07.003Z,1018.26
2017-05-17T15:19:29.521Z,1018.28
2017-05-17T15:20:51.787Z,1018.34
2017-05-17T15:22:13.978Z,1018.36
2017-05-17T15:23:36.199Z,1018.34
2017-05-17T15:24:58.074Z,1018.29
2017-05-17T15:26:20.308Z,1018.3
2017-05-17T15:27:42.830Z,1018.3
2017-05-17T15:29:05.312Z,1018.29
2017-05-17T15:30:27.481Z,1018.25
2017-05-17T15:31:49.666Z,1018.25
2017-05-17T15:33:12.182Z,1018.22
2017-05-17T15:34:34.928Z,1018.14
2017-05-17T15:35:57.511Z,1018.2
2017-05-17T15:37:19.743Z,1018.17
2017-05-17T15:38:41.934Z,1018.12
2017-05-17T15:40:04.416Z,1018.11
2017-05-17T15:41:26.299Z,1018.05
2017-05-17T15:42:48.431Z,1018.07
2017-05-17T15:44:10.395Z,1018.06
2017-05-17T15:45:33.273Z,1018.03
2017-05-17T15:46:55.452Z,1017.99
2017-05-17T15:48:17.339Z,1018.03
2017-05-17T15:49:39.215Z,1017.96
2017-05-17T15:51:01.742Z,1017.91
2017-05-17T15:52:23.917Z,1017.92
2017-05-17T15:53:46.418Z,1017.89
2017-05-17T15:55:08.587Z,1017.82
2017-05-17T15:56:31.687Z,1017.87
2017-05-17T15:57:53.281Z,1017.77
2017-05-17T15:59:15.166Z,1017.8
2017-05-17T16:00:37.359Z,1017.8
2017-05-17T16:01:59.899Z,1017.83
2017-05-17T16:03:22.084Z,1017.75
2017-05-17T16:04:44.287Z,1017.72
2017-05-17T16:06:06.789Z,1017.72
2017-05-17T16:07:29.228Z,1017.72
2017-05-17T16:08:51.083Z,1017.69
2017-05-17T16:10:12.917Z,1017.61
2017-05-17T16:11:35.468Z,1017.57
2017-05-17T16:12:57.702Z,1017.66
2017-05-17T16:14:19.889Z,1017.57
2017-05-17T16:15:42.113Z,1017.6
2017-05-17T16:17:04.304Z,1017.64
2017-05-17T16:18:26.664Z,1017.62
2017-05-17T16:19:49.145Z,1017.59
2017-05-17T16:21:11.033Z,1017.52
2017-05-17T16:22:32.886Z,1017.58
2017-05-17T16:23:54.750Z,1017.62
2017-05-17T16:25:17.359Z,1017.54
2017-05-17T16:26:39.528Z,1017.49
2017-05-17T16:28:01.777Z,1017.46
2017-05-17T16:29:23.650Z,1017.46
2017-05-17T16:30:46.167Z,1017.38
2017-05-17T16:32:07.752Z,1017.4
2017-05-17T16:33:30.068Z,1017.39
2017-05-17T16:34:52.315Z,1017.23
2017-05-17T16:36:13.845Z,1017.3
2017-05-17T16:37:35.424Z,1017.29